Time;durP1;ratioP1;P1;durP2;ratioP2;P2;SDS_P1;SDS_P2;PMS_P1;PMS_P2;Temp;Humidity;BMP_temperature;BMP_pressure;BME280_temperature;BME280_humidity;BME280_pressure;Samples;Min_cycle;Max_cycle;Signal;HPM_P1;HPM_P2
2022/08/07 00:00:31;;;;;;;2.35;2.13;;;16.20;75.10;;;;;;2105858;28;20039;-76
2022/08/07 00:01:32;;;;;;;2.20;2.00;;;16.10;75.20;;;;;;2106927;28;20067;-75
2022/08/07 00:02:33;;;;;;;2.92;2.00;;;16.10;75.30;;;;;;2106568;28;20031;-75
2022/08/07 00:03:34;;;;;;;3.63;1.75;;;16.10;75.40;;;;;;2106055;28;20024;-75
2022/08/07 00:04:35;;;;;;;2.20;1.95;;;16.10;75.50;;;;;;2106067;28;20020;-75
2022/08/07 00:05:36;;;;;;;2.70;2.10;;;16.10;75.40;;;;;;2098801;28;20032;-75
2022/08/07 00:06:38;;;;;;;3.33;2.00;;;16.10;75.50;;;;;;2090491;28;20787;-75
2022/08/07 00:07:39;;;;;;;2.92;2.00;;;16.10;75.70;;;;;;2092341;28;20364;-74
2022/08/07 00:08:40;;;;;;;2.53;2.10;;;16.00;75.80;;;;;;2094933;28;20183;-75
2022/08/07 00:09:40;;;;;;;2.17;1.80;;;16.00;75.80;;;;;;2103875;28;20035;-74
2022/08/07 00:10:41;;;;;;;2.40;1.90;;;16.00;75.80;;;;;;2112582;28;20038;-75
2022/08/07 00:11:42;;;;;;;2.35;2.15;;;16.00;75.80;;;;;;2109661;28;20542;-75
2022/08/07 00:12:43;;;;;;;2.55;1.80;;;16.00;75.90;;;;;;2106979;28;20059;-76
2022/08/07 00:13:44;;;;;;;2.10;1.90;;;16.00;76.00;;;;;;2105856;28;20422;-75
2022/08/07 00:14:45;;;;;;;2.72;1.95;;;16.00;75.90;;;;;;2105692;28;20578;-75
2022/08/07 00:15:47;;;;;;;2.45;1.90;;;16.00;76.10;;;;;;2105969;28;20103;-75
2022/08/07 00:16:48;;;;;;;2.67;1.83;;;16.00;76.20;;;;;;2106662;28;20020;-75
2022/08/07 00:17:52;;;;;;;2.30;1.95;;;16.00;76.30;;;;;;2098946;28;20024;-74
2022/08/07 00:18:53;;;;;;;2.13;1.90;;;16.00;76.10;;;;;;2091962;28;20025;-74
2022/08/07 00:19:54;;;;;;;3.45;2.20;;;15.90;76.00;;;;;;2090040;28;20029;-72
2022/08/07 00:20:58;;;;;;;2.63;2.10;;;15.90;76.20;;;;;;2098856;28;20024;-74
2022/08/07 00:21:59;;;;;;;2.20;2.00;;;15.90;76.50;;;;;;2105965;28;20024;-75
2022/08/07 00:23:00;;;;;;;3.33;2.40;;;15.90;79.60;;;;;;2106036;28;20052;-75
2022/08/07 00:24:01;;;;;;;4.22;2.60;;;15.90;84.70;;;;;;2106423;28;20470;-77
2022/08/07 00:25:06;;;;;;;2.67;2.40;;;15.90;82.60;;;;;;2106296;28;20043;-75
2022/08/07 00:26:09;;;;;;;3.05;2.50;;;15.90;80.80;;;;;;2098598;28;20032;-75
2022/08/07 00:27:10;;;;;;;4.25;2.50;;;15.90;79.40;;;;;;2089993;28;20063;-75
2022/08/07 00:28:10;;;;;;;4.15;2.67;;;15.90;79.40;;;;;;2088874;28;20025;-73
2022/08/07 00:29:11;;;;;;;3.15;2.60;;;15.80;78.90;;;;;;2088817;28;20049;-72
2022/08/07 00:30:12;;;;;;;3.00;2.50;;;15.80;78.50;;;;;;2096721;28;20032;-74
2022/08/07 00:31:13;;;;;;;2.95;2.50;;;15.80;78.00;;;;;;2104597;28;20032;-74
2022/08/07 00:32:17;;;;;;;3.08;2.53;;;15.70;77.80;;;;;;2105937;28;20515;-75
2022/08/07 00:33:18;;;;;;;3.22;2.60;;;15.70;77.70;;;;;;2097759;28;20035;-75
2022/08/07 00:34:19;;;;;;;3.80;2.60;;;15.70;77.70;;;;;;2096915;28;20068;-75
2022/08/07 00:35:20;;;;;;;3.63;2.58;;;15.60;77.70;;;;;;2097420;28;20031;-76
2022/08/07 00:36:21;;;;;;;4.25;2.50;;;15.60;77.90;;;;;;2105765;28;20020;-75
2022/08/07 00:37:21;;;;;;;2.92;2.58;;;15.60;78.10;;;;;;2096618;28;20025;-74
2022/08/07 00:38:23;;;;;;;3.13;2.30;;;15.50;78.10;;;;;;2104584;28;20024;-74
2022/08/07 00:39:25;;;;;;;2.92;2.40;;;15.50;78.10;;;;;;2096370;28;20471;-74
2022/08/07 00:40:30;;;;;;;4.05;2.55;;;15.50;78.10;;;;;;2096898;28;20025;-74
2022/08/07 00:41:32;;;;;;;3.97;2.53;;;15.40;78.00;;;;;;2097292;28;20067;-74
2022/08/07 00:42:33;;;;;;;2.83;2.45;;;15.40;78.20;;;;;;2104940;28;20027;-75
2022/08/07 00:43:34;;;;;;;3.55;2.47;;;15.40;78.10;;;;;;2097394;28;20115;-77
2022/08/07 00:44:35;;;;;;;3.20;2.40;;;15.40;78.20;;;;;;2096903;28;20116;-76
2022/08/07 00:45:38;;;;;;;3.05;2.50;;;15.40;78.40;;;;;;2105275;28;20024;-76
2022/08/07 00:46:38;;;;;;;3.28;2.28;;;15.30;78.40;;;;;;2105534;28;20131;-75
2022/08/07 00:47:39;;;;;;;4.25;2.67;;;15.30;78.50;;;;;;2108292;28;20020;-74
2022/08/07 00:48:43;;;;;;;2.50;2.30;;;15.30;78.40;;;;;;2099697;28;20054;-75
2022/08/07 00:49:44;;;;;;;3.15;2.70;;;15.30;78.50;;;;;;2091450;28;20646;-72
2022/08/07 00:50:45;;;;;;;3.53;2.60;;;15.30;78.50;;;;;;2104716;28;20028;-74
2022/08/07 00:51:46;;;;;;;3.30;2.60;;;15.30;78.60;;;;;;2105505;28;20054;-73
2022/08/07 00:52:46;;;;;;;3.60;2.70;;;15.30;78.70;;;;;;2105209;28;20065;-75
2022/08/07 00:53:47;;;;;;;2.65;2.45;;;15.30;79.00;;;;;;2095735;28;20578;-75
2022/08/07 00:54:49;;;;;;;3.80;2.70;;;15.30;79.10;;;;;;2095911;28;20039;-74
2022/08/07 00:55:49;;;;;;;3.33;2.55;;;15.20;79.10;;;;;;2104373;28;20016;-75
2022/08/07 00:56:50;;;;;;;3.13;2.53;;;15.20;79.10;;;;;;2095831;28;20119;-74
2022/08/07 00:57:51;;;;;;;3.08;2.60;;;15.20;79.00;;;;;;2104255;28;20514;-74
2022/08/07 00:58:52;;;;;;;2.92;2.30;;;15.20;79.10;;;;;;2105106;28;20021;-74
2022/08/07 00:59:53;;;;;;;3.20;2.60;;;15.20;79.40;;;;;;2104074;28;20066;-74
2022/08/07 01:00:53;;;;;;;3.08;2.60;;;15.10;79.30;;;;;;2095876;28;20082;-75
2022/08/07 01:01:58;;;;;;;2.80;2.47;;;15.10;79.30;;;;;;2096584;28;20028;-74
2022/08/07 01:02:59;;;;;;;3.70;2.53;;;15.10;79.30;;;;;;2105436;28;20636;-74
2022/08/07 01:04:05;;;;;;;4.35;2.60;;;15.10;79.60;;;;;;2106163;28;20020;-74
2022/08/07 01:05:08;;;;;;;4.10;2.70;;;15.10;79.50;;;;;;2097634;28;20040;-75
2022/08/07 01:06:09;;;;;;;3.65;2.70;;;15.10;79.50;;;;;;2090180;28;20503;-75
2022/08/07 01:07:11;;;;;;;4.80;2.70;;;15.10;79.30;;;;;;2096021;28;20586;-74
2022/08/07 01:08:12;;;;;;;3.75;2.50;;;15.10;79.40;;;;;;2096028;28;20029;-75
2022/08/07 01:09:13;;;;;;;3.65;2.78;;;15.10;79.60;;;;;;2087957;28;20036;-74
2022/08/07 01:10:15;;;;;;;4.28;2.50;;;15.10;79.60;;;;;;2088897;28;20036;-74
2022/08/07 01:11:17;;;;;;;3.90;2.35;;;15.10;79.40;;;;;;2088894;28;20549;-74
2022/08/07 01:12:18;;;;;;;3.92;2.45;;;15.00;79.50;;;;;;2096757;28;20044;-74
2022/08/07 01:13:20;;;;;;;3.25;2.15;;;15.10;79.70;;;;;;2104952;28;20469;-75
2022/08/07 01:14:22;;;;;;;3.30;2.40;;;15.00;79.80;;;;;;2104243;28;20032;-76
2022/08/07 01:15:24;;;;;;;3.40;2.30;;;15.00;79.80;;;;;;2096549;28;20108;-75
2022/08/07 01:16:25;;;;;;;2.50;2.30;;;15.00;80.00;;;;;;2100464;28;20081;-74
2022/08/07 01:17:26;;;;;;;2.67;2.35;;;15.00;80.30;;;;;;2095985;28;20017;-74
2022/08/07 01:18:28;;;;;;;4.72;2.50;;;14.90;80.40;;;;;;2104123;28;20047;-73
2022/08/07 01:19:29;;;;;;;3.33;2.40;;;14.90;80.40;;;;;;2104908;28;20027;-75
2022/08/07 01:20:40;;;;;;;2.92;2.40;;;14.90;80.40;;;;;;2104185;28;20111;-74
2022/08/07 01:21:42;;;;;;;2.72;2.17;;;14.80;80.50;;;;;;2099123;28;20050;-74
2022/08/07 01:22:44;;;;;;;2.70;2.30;;;14.80;80.50;;;;;;2097669;28;20025;-75
2022/08/07 01:23:46;;;;;;;2.50;2.30;;;14.80;80.70;;;;;;2106413;28;20020;-75
2022/08/07 01:24:49;;;;;;;2.60;2.40;;;14.80;80.80;;;;;;2107546;28;20107;-76
2022/08/07 01:25:50;;;;;;;3.60;2.45;;;14.70;80.90;;;;;;2097895;28;20017;-73
2022/08/07 01:26:52;;;;;;;3.80;2.67;;;14.70;81.00;;;;;;2097777;28;20044;-76
2022/08/07 01:27:54;;;;;;;2.65;2.20;;;14.70;81.10;;;;;;2089681;28;20021;-75
2022/08/07 01:28:56;;;;;;;3.67;2.35;;;14.70;81.10;;;;;;2106148;28;20106;-75
2022/08/07 01:30:03;;;;;;;3.25;2.33;;;14.70;81.30;;;;;;2106278;28;20406;-75
2022/08/07 01:31:05;;;;;;;2.67;2.47;;;14.60;81.20;;;;;;2098852;28;20029;-76
2022/08/07 01:32:09;;;;;;;3.15;2.47;;;14.60;81.20;;;;;;2103697;28;20038;-74
2022/08/07 01:33:11;;;;;;;2.65;2.10;;;14.60;81.40;;;;;;2106525;28;20013;-74
2022/08/07 01:34:13;;;;;;;2.50;2.30;;;14.60;81.40;;;;;;2105988;28;20095;-75
2022/08/07 01:35:19;;;;;;;2.92;2.33;;;14.60;81.40;;;;;;2107248;28;20025;-76
2022/08/07 01:36:22;;;;;;;3.33;2.35;;;14.60;81.50;;;;;;2097096;28;20029;-75
2022/08/07 01:37:23;;;;;;;4.30;2.40;;;14.60;81.70;;;;;;2099038;28;20083;-75
2022/08/07 01:38:28;;;;;;;3.13;2.20;;;14.60;81.50;;;;;;2108308;28;20017;-75
2022/08/07 01:39:32;;;;;;;4.80;2.20;;;14.60;81.50;;;;;;2113130;28;20103;-72
2022/08/07 01:40:41;;;;;;;2.97;2.25;;;14.50;81.70;;;;;;2094390;28;20278;-73
2022/08/07 01:41:43;;;;;;;2.30;2.10;;;14.50;81.90;;;;;;2087046;28;20037;-75
2022/08/07 01:42:45;;;;;;;2.50;2.30;;;14.50;82.00;;;;;;2101068;28;20047;-76
2022/08/07 01:43:46;;;;;;;3.35;2.38;;;14.50;82.00;;;;;;2106793;28;20016;-76
2022/08/07 01:44:47;;;;;;;2.60;2.20;;;14.50;82.10;;;;;;2098434;28;20419;-76
2022/08/07 01:45:48;;;;;;;2.50;2.30;;;14.50;82.10;;;;;;2098528;28;20035;-76
2022/08/07 01:46:52;;;;;;;4.05;2.30;;;14.40;82.10;;;;;;2106707;28;20052;-76
2022/08/07 01:47:54;;;;;;;2.38;2.13;;;14.40;82.20;;;;;;2099803;28;20024;-74
2022/08/07 01:48:56;;;;;;;3.78;2.30;;;14.50;82.40;;;;;;2101626;28;20058;-76
2022/08/07 01:50:00;;;;;;;2.53;2.33;;;14.40;82.50;;;;;;2101269;28;20360;-75
2022/08/07 01:51:03;;;;;;;2.58;2.15;;;14.40;82.50;;;;;;2098595;28;20097;-74
2022/08/07 01:52:06;;;;;;;2.50;2.25;;;14.40;82.60;;;;;;2092358;28;20742;-76
2022/08/07 01:53:09;;;;;;;2.58;2.15;;;14.30;82.50;;;;;;2090565;28;20083;-75
2022/08/07 01:54:14;;;;;;;2.47;2.10;;;14.40;82.70;;;;;;2092479;28;20426;-75
2022/08/07 01:55:25;;;;;;;2.80;2.13;;;14.40;82.90;;;;;;2091629;28;20036;-76
2022/08/07 01:56:53;;;;;;;2.75;2.33;;;14.30;83.60;;;;;;2101961;28;20050;-75
2022/08/07 01:57:57;;;;;;;2.92;2.40;;;14.30;82.90;;;;;;2098190;28;20090;-76
2022/08/07 01:59:13;;;;;;;3.15;2.17;;;14.30;82.90;;;;;;2098431;28;20495;-76
2022/08/07 02:00:14;;;;;;;2.80;2.10;;;14.30;83.10;;;;;;2098384;28;20056;-76
2022/08/07 02:01:23;;;;;;;3.67;2.20;;;14.30;83.10;;;;;;2090258;28;20120;-76
2022/08/07 02:02:49;;;;;;;2.20;2.00;;;14.30;83.30;;;;;;2091998;28;20068;-74
2022/08/07 02:04:27;;;;;;;3.30;2.10;;;14.30;83.30;;;;;;2101189;28;20035;-75
2022/08/07 02:05:54;;;;;;;2.58;2.10;;;14.30;83.40;;;;;;2069884;28;20036;-73
2022/08/07 02:07:00;;;;;;;2.65;2.25;;;14.30;83.50;;;;;;2101516;28;20024;-75
2022/08/07 02:08:05;;;;;;;3.03;2.17;;;14.30;83.50;;;;;;2101642;28;20051;-74
2022/08/07 02:09:13;;;;;;;3.08;2.15;;;14.30;83.40;;;;;;2098770;28;20024;-75
2022/08/07 02:10:16;;;;;;;2.63;2.30;;;14.30;83.50;;;;;;2098286;28;20032;-75
2022/08/07 02:11:17;;;;;;;2.50;2.22;;;14.30;83.50;;;;;;2101095;28;20023;-75
2022/08/07 02:12:23;;;;;;;2.28;2.08;;;14.20;83.70;;;;;;2105879;28;20020;-75
2022/08/07 02:13:36;;;;;;;3.05;2.22;;;14.20;83.80;;;;;;2097345;28;20048;-76
2022/08/07 02:14:55;;;;;;;2.58;2.10;;;14.20;84.00;;;;;;2092902;28;20037;-75
2022/08/07 02:16:17;;;;;;;3.83;2.38;;;14.20;84.10;;;;;;2095103;28;20052;-75
2022/08/07 02:17:18;;;;;;;3.35;2.25;;;14.10;84.20;;;;;;2092479;28;20029;-75
2022/08/07 02:18:22;;;;;;;3.08;2.28;;;14.10;84.30;;;;;;2091320;28;20116;-76
2022/08/07 02:19:24;;;;;;;2.75;2.47;;;14.10;84.50;;;;;;2082730;28;20970;-76
2022/08/07 02:20:29;;;;;;;2.80;2.00;;;14.10;84.50;;;;;;2089248;28;20033;-75
2022/08/07 02:21:31;;;;;;;2.55;2.20;;;14.10;84.60;;;;;;2089354;28;20071;-75
2022/08/07 02:22:34;;;;;;;2.47;2.28;;;14.10;84.70;;;;;;2097725;28;20052;-75
2022/08/07 02:23:39;;;;;;;2.30;2.10;;;14.10;84.80;;;;;;2089023;28;20021;-75
2022/08/07 02:24:45;;;;;;;2.70;2.28;;;14.10;85.00;;;;;;2089911;28;20036;-75
2022/08/07 02:25:49;;;;;;;2.50;2.30;;;14.10;85.10;;;;;;2097925;28;20101;-75
2022/08/07 02:26:51;;;;;;;2.17;1.98;;;14.10;85.20;;;;;;2097422;28;20107;-75
2022/08/07 02:27:54;;;;;;;2.13;1.98;;;14.10;85.30;;;;;;2089728;28;20089;-76
2022/08/07 02:28:57;;;;;;;2.30;2.10;;;14.10;85.30;;;;;;2098028;28;20082;-75
2022/08/07 02:30:00;;;;;;;2.20;2.00;;;14.10;85.30;;;;;;2106122;28;20024;-76
2022/08/07 02:31:07;;;;;;;2.70;2.10;;;14.10;85.60;;;;;;2105214;28;20681;-73
2022/08/07 02:32:09;;;;;;;2.55;2.10;;;14.00;85.70;;;;;;2097797;28;20066;-73
2022/08/07 02:33:11;;;;;;;2.50;2.30;;;14.00;85.70;;;;;;2098671;28;20085;-75
2022/08/07 02:34:13;;;;;;;3.22;2.30;;;14.00;85.90;;;;;;2091321;28;20025;-75
2022/08/07 02:35:22;;;;;;;3.53;2.10;;;14.00;85.90;;;;;;2103738;28;20032;-75
2022/08/07 02:36:28;;;;;;;3.28;2.25;;;14.00;86.10;;;;;;2098779;28;20048;-75
2022/08/07 02:37:32;;;;;;;2.60;2.15;;;14.00;86.10;;;;;;2105999;28;20024;-75
2022/08/07 02:38:37;;;;;;;2.35;2.10;;;14.00;86.30;;;;;;2105859;28;20052;-75
2022/08/07 02:39:42;;;;;;;3.63;2.10;;;14.00;86.40;;;;;;2097362;28;20090;-76
2022/08/07 02:40:46;;;;;;;3.42;2.20;;;14.00;86.40;;;;;;2082585;28;20029;-75
2022/08/07 02:41:48;;;;;;;2.20;2.00;;;14.00;86.70;;;;;;2088715;28;20117;-75
2022/08/07 02:42:50;;;;;;;2.75;2.17;;;13.90;86.80;;;;;;2097575;28;20107;-75
2022/08/07 02:43:55;;;;;;;4.47;2.03;;;13.90;86.90;;;;;;2097176;28;20063;-75
2022/08/07 02:44:56;;;;;;;3.10;2.00;;;13.90;86.90;;;;;;2089501;28;20029;-74
2022/08/07 02:46:00;;;;;;;2.33;2.10;;;13.90;87.10;;;;;;2089153;28;20029;-74
2022/08/07 02:47:05;;;;;;;2.40;2.20;;;13.90;87.30;;;;;;2089952;28;20029;-75
2022/08/07 02:48:08;;;;;;;4.60;2.00;;;13.90;87.50;;;;;;2097478;28;20020;-75
2022/08/07 02:49:09;;;;;;;2.20;2.00;;;13.80;87.70;;;;;;2105505;28;20028;-74
2022/08/07 02:50:10;;;;;;;2.38;2.10;;;13.80;87.80;;;;;;2096976;28;20020;-74
2022/08/07 02:51:17;;;;;;;2.67;2.00;;;13.90;88.10;;;;;;2097604;28;20040;-75
2022/08/07 02:52:24;;;;;;;2.30;2.10;;;13.90;88.10;;;;;;2106201;28;20083;-74
2022/08/07 02:53:30;;;;;;;2.75;2.10;;;13.80;88.10;;;;;;2098386;28;20103;-74
2022/08/07 02:54:34;;;;;;;2.10;1.90;;;13.80;88.30;;;;;;2089675;28;20028;-73
2022/08/07 02:55:41;;;;;;;2.45;2.08;;;13.80;88.40;;;;;;2097537;28;20021;-73
2022/08/07 02:56:45;;;;;;;2.60;2.40;;;13.80;88.60;;;;;;2099170;28;20088;-74
2022/08/07 02:57:47;;;;;;;2.20;2.00;;;13.80;88.70;;;;;;2105543;28;20026;-75
2022/08/07 02:58:51;;;;;;;2.63;2.10;;;13.70;88.80;;;;;;2097282;28;20684;-74
2022/08/07 02:59:52;;;;;;;2.15;2.05;;;13.70;89.00;;;;;;2106025;28;20545;-75
2022/08/07 03:00:57;;;;;;;3.53;2.30;;;13.80;89.40;;;;;;2097065;28;20029;-75
2022/08/07 03:01:59;;;;;;;2.15;1.98;;;13.70;89.50;;;;;;2097647;28;20056;-75
2022/08/07 03:03:04;;;;;;;2.22;2.03;;;13.70;89.70;;;;;;2097222;28;20031;-74
2022/08/07 03:04:08;;;;;;;3.35;2.13;;;13.70;90.00;;;;;;2105497;28;20028;-74
2022/08/07 03:05:10;;;;;;;2.88;2.08;;;13.70;90.00;;;;;;2088837;28;20037;-74
2022/08/07 03:06:11;;;;;;;2.28;2.08;;;13.70;90.00;;;;;;2089245;28;20032;-74
2022/08/07 03:07:13;;;;;;;3.45;2.20;;;13.70;90.10;;;;;;2096943;28;20406;-74
2022/08/07 03:08:18;;;;;;;3.03;2.17;;;13.70;90.10;;;;;;2106057;28;20163;-75
2022/08/07 03:09:21;;;;;;;2.13;2.00;;;13.70;90.20;;;;;;2097590;28;20523;-75
2022/08/07 03:10:23;;;;;;;2.47;2.00;;;13.70;90.20;;;;;;2097366;28;20441;-75
2022/08/07 03:11:25;;;;;;;2.30;2.10;;;13.60;90.30;;;;;;2101169;28;20067;-75
2022/08/07 03:12:27;;;;;;;2.30;2.10;;;13.60;90.40;;;;;;2100579;28;20017;-75
2022/08/07 03:13:29;;;;;;;3.25;1.90;;;13.60;90.40;;;;;;2109015;28;20031;-75
2022/08/07 03:14:31;;;;;;;2.63;1.98;;;13.60;90.50;;;;;;2097256;28;20039;-75
2022/08/07 03:15:32;;;;;;;3.10;1.90;;;13.60;90.60;;;;;;2097144;28;20081;-75
2022/08/07 03:16:35;;;;;;;4.05;1.95;;;13.60;90.60;;;;;;2089112;28;20406;-74
2022/08/07 03:17:36;;;;;;;2.83;1.90;;;13.60;90.70;;;;;;2097150;28;20601;-75
2022/08/07 03:18:40;;;;;;;2.28;2.08;;;13.60;90.80;;;;;;2105151;28;20031;-76
2022/08/07 03:19:41;;;;;;;2.28;1.90;;;13.60;90.90;;;;;;2097156;28;20028;-75
2022/08/07 03:20:44;;;;;;;2.00;1.80;;;13.50;91.00;;;;;;2096982;28;20021;-75
2022/08/07 03:21:46;;;;;;;2.10;1.90;;;13.50;91.00;;;;;;2097063;28;20102;-75
2022/08/07 03:22:52;;;;;;;2.60;2.00;;;13.50;91.10;;;;;;2099423;28;20021;-75
2022/08/07 03:23:58;;;;;;;3.88;2.10;;;13.50;91.30;;;;;;2091676;28;20063;-74
2022/08/07 03:25:01;;;;;;;3.42;1.90;;;13.50;91.30;;;;;;2098772;28;20140;-74
2022/08/07 03:26:13;;;;;;;2.53;1.98;;;13.50;91.50;;;;;;2098795;28;20028;-77
2022/08/07 03:27:20;;;;;;;3.58;2.20;;;13.50;91.60;;;;;;2099519;28;20036;-75
2022/08/07 03:28:32;;;;;;;2.40;2.10;;;13.40;91.70;;;;;;2100590;28;20032;-75
2022/08/07 03:29:39;;;;;;;2.15;1.95;;;13.40;91.80;;;;;;2106879;28;20259;-75
2022/08/07 03:30:43;;;;;;;2.53;2.08;;;13.40;91.90;;;;;;2105429;28;20021;-75
2022/08/07 03:31:46;;;;;;;2.80;2.08;;;13.40;92.00;;;;;;2105689;28;20469;-73
2022/08/07 03:32:52;;;;;;;2.03;1.92;;;13.40;92.10;;;;;;2105388;28;20076;-75
2022/08/07 03:33:58;;;;;;;2.70;2.08;;;13.40;92.20;;;;;;2105170;28;20046;-75
2022/08/07 03:35:02;;;;;;;2.00;1.90;;;13.40;92.20;;;;;;2097155;28;20024;-76
2022/08/07 03:36:05;;;;;;;2.03;1.90;;;13.40;92.40;;;;;;2097163;28;20028;-75
2022/08/07 03:37:08;;;;;;;2.13;1.95;;;13.40;92.50;;;;;;2096638;28;20043;-75
2022/08/07 03:38:10;;;;;;;2.30;2.03;;;13.30;92.70;;;;;;2097180;28;20028;-75
2022/08/07 03:39:14;;;;;;;3.08;2.22;;;13.40;92.80;;;;;;2106133;28;20031;-76
2022/08/07 03:40:18;;;;;;;2.20;2.00;;;13.40;92.90;;;;;;2098928;28;20020;-75
2022/08/07 03:41:19;;;;;;;2.33;2.13;;;13.40;93.00;;;;;;2097434;28;20020;-75
2022/08/07 03:42:20;;;;;;;3.17;2.20;;;13.30;93.00;;;;;;2105527;28;20028;-74
2022/08/07 03:43:23;;;;;;;3.67;2.10;;;13.30;93.10;;;;;;2105074;28;20038;-73
2022/08/07 03:44:26;;;;;;;2.65;2.17;;;13.40;93.20;;;;;;2096992;28;20056;-74
2022/08/07 03:45:28;;;;;;;2.63;2.20;;;13.40;93.30;;;;;;2089577;28;20052;-74
2022/08/07 03:46:34;;;;;;;2.20;2.00;;;13.40;93.30;;;;;;2097925;28;20079;-74
2022/08/07 03:47:36;;;;;;;2.92;2.20;;;13.40;93.30;;;;;;2096582;28;20310;-75
2022/08/07 03:48:37;;;;;;;3.53;2.17;;;13.40;93.40;;;;;;2098204;28;20111;-74
2022/08/07 03:49:43;;;;;;;2.70;1.95;;;13.30;93.40;;;;;;2099380;28;20541;-74
2022/08/07 03:50:45;;;;;;;2.75;1.90;;;13.40;93.50;;;;;;2097529;28;20054;-74
2022/08/07 03:51:47;;;;;;;2.58;2.08;;;13.40;93.50;;;;;;2096979;28;20102;-75
2022/08/07 03:52:49;;;;;;;2.25;2.05;;;13.40;93.60;;;;;;2096715;28;20036;-74
2022/08/07 03:53:51;;;;;;;3.17;2.13;;;13.40;93.70;;;;;;2098774;28;20028;-75
2022/08/07 03:55:02;;;;;;;2.10;1.90;;;13.30;93.70;;;;;;2089064;28;20024;-74
2022/08/07 03:56:03;;;;;;;;;;;13.30;93.80;;;;;;2098014;28;20021;-75
2022/08/07 03:57:06;;;;;;;3.15;2.20;;;13.40;94.00;;;;;;2096905;28;19912;-75
2022/08/07 03:58:08;;;;;;;2.20;2.00;;;13.30;94.00;;;;;;2098610;28;20075;-75
2022/08/07 03:59:13;;;;;;;2.20;2.00;;;13.30;94.10;;;;;;2089120;28;20025;-75
2022/08/07 04:00:16;;;;;;;2.33;2.03;;;13.30;94.20;;;;;;2088813;28;20068;-75
2022/08/07 04:01:18;;;;;;;3.08;2.03;;;13.30;94.40;;;;;;2099912;28;20307;-74
2022/08/07 04:02:21;;;;;;;2.25;2.10;;;13.30;94.50;;;;;;2104976;28;20038;-74
2022/08/07 04:03:23;;;;;;;2.15;1.95;;;13.30;94.50;;;;;;2105270;28;20413;-76
2022/08/07 04:04:25;;;;;;;2.20;2.00;;;13.30;94.60;;;;;;2105750;28;20031;-74
2022/08/07 04:05:34;;;;;;;3.10;2.20;;;13.30;94.80;;;;;;2097730;28;20028;-74
2022/08/07 04:06:39;;;;;;;3.38;2.10;;;13.30;94.70;;;;;;2096959;28;20055;-74
2022/08/07 04:07:47;;;;;;;2.45;2.25;;;13.40;94.70;;;;;;2092562;28;20044;-75
2022/08/07 04:08:52;;;;;;;3.15;2.00;;;13.30;94.80;;;;;;2097544;28;20174;-74
2022/08/07 04:09:54;;;;;;;2.10;2.00;;;13.40;94.90;;;;;;2105614;28;20035;-75
2022/08/07 04:10:58;;;;;;;2.40;2.20;;;13.40;95.00;;;;;;2096657;28;20024;-74
2022/08/07 04:12:00;;;;;;;2.10;1.90;;;13.30;95.00;;;;;;2089145;28;20032;-74
2022/08/07 04:13:03;;;;;;;2.47;2.15;;;13.30;95.00;;;;;;2096913;28;20097;-74
2022/08/07 04:14:06;;;;;;;2.30;2.10;;;13.40;95.10;;;;;;2106343;28;20035;-74
2022/08/07 04:15:15;;;;;;;2.28;2.08;;;13.40;95.20;;;;;;2097742;28;20501;-74
2022/08/07 04:16:17;;;;;;;2.40;2.20;;;13.40;95.30;;;;;;2099106;28;20025;-74
2022/08/07 04:17:19;;;;;;;2.85;2.20;;;13.40;95.40;;;;;;2098954;28;20108;-75
2022/08/07 04:18:20;;;;;;;3.28;2.10;;;13.40;95.40;;;;;;2098099;28;20611;-75
2022/08/07 04:19:22;;;;;;;2.75;2.30;;;13.40;95.50;;;;;;2089574;28;20133;-76
2022/08/07 04:20:25;;;;;;;2.72;2.10;;;13.40;95.50;;;;;;2091536;28;20059;-75
2022/08/07 04:21:26;;;;;;;2.38;2.17;;;13.40;95.60;;;;;;2080628;28;20033;-75
2022/08/07 04:22:28;;;;;;;2.58;2.00;;;13.40;95.60;;;;;;2096808;28;20518;-75
2022/08/07 04:23:31;;;;;;;2.40;2.20;;;13.50;95.70;;;;;;2105537;28;20059;-75
2022/08/07 04:24:34;;;;;;;2.35;2.15;;;13.50;95.70;;;;;;2097454;28;20040;-75
2022/08/07 04:25:37;;;;;;;3.08;2.20;;;13.50;95.70;;;;;;2097408;28;20036;-75
2022/08/07 04:26:39;;;;;;;2.50;2.15;;;13.50;95.70;;;;;;2097241;28;20453;-74
2022/08/07 04:27:40;;;;;;;2.25;2.00;;;13.50;95.80;;;;;;2097048;28;20064;-75
2022/08/07 04:28:45;;;;;;;2.70;2.30;;;13.60;95.80;;;;;;2097998;28;20036;-74
2022/08/07 04:29:46;;;;;;;2.53;1.90;;;13.70;95.70;;;;;;2096781;28;20033;-75
2022/08/07 04:30:48;;;;;;;2.35;2.05;;;13.90;95.60;;;;;;2089080;28;20099;-77
2022/08/07 04:31:57;;;;;;;2.78;2.00;;;14.20;95.20;;;;;;2090305;28;20032;-75
2022/08/07 04:32:58;;;;;;;3.90;2.10;;;14.70;94.40;;;;;;2081491;28;20125;-75
2022/08/07 04:34:00;;;;;;;3.42;1.90;;;15.10;93.50;;;;;;2088309;28;20151;-74
2022/08/07 04:35:03;;;;;;;2.55;2.08;;;15.50;92.50;;;;;;2088622;28;20036;-74
2022/08/07 04:36:13;;;;;;;3.05;1.90;;;15.90;91.70;;;;;;2090230;28;20107;-75
2022/08/07 04:37:14;;;;;;;2.15;1.95;;;16.30;90.60;;;;;;2099260;28;20029;-75
2022/08/07 04:38:18;;;;;;;2.85;1.92;;;16.70;89.40;;;;;;2105842;28;20103;-75
2022/08/07 04:39:21;;;;;;;2.78;1.80;;;17.00;87.70;;;;;;2106147;28;20030;-76
2022/08/07 04:40:22;;;;;;;2.35;1.88;;;17.20;85.90;;;;;;2106784;28;20044;-76
2022/08/07 04:41:23;;;;;;;3.72;2.03;;;17.50;84.60;;;;;;2106877;28;20024;-75
2022/08/07 04:42:30;;;;;;;1.88;1.77;;;17.80;83.40;;;;;;2089657;28;20373;-75
2022/08/07 04:43:35;;;;;;;3.00;1.90;;;18.00;82.30;;;;;;2082861;28;20119;-76
2022/08/07 04:44:37;;;;;;;3.35;1.80;;;18.20;81.30;;;;;;2082254;28;20080;-75
2022/08/07 04:46:12;;;;;;;2.75;2.00;;;18.30;80.30;;;;;;2089170;28;20094;-75
2022/08/07 04:47:31;;;;;;;2.03;1.83;;;18.60;79.40;;;;;;2073165;28;20064;-75
2022/08/07 04:48:53;;;;;;;2.80;1.88;;;18.80;78.10;;;;;;2103949;28;20033;-75
2022/08/07 04:50:09;;;;;;;2.63;2.05;;;19.00;77.10;;;;;;2103392;28;20138;-74
2022/08/07 04:51:40;;;;;;;2.47;2.03;;;19.20;75.80;;;;;;2108904;28;20032;-75
2022/08/07 04:52:52;;;;;;;2.20;1.75;;;19.30;75.10;;;;;;2101317;28;20029;-74
2022/08/07 04:54:00;;;;;;;3.25;1.90;;;19.50;74.40;;;;;;2100299;28;20040;-76
2022/08/07 04:55:04;;;;;;;2.00;1.85;;;19.60;73.80;;;;;;2099820;28;20116;-77
2022/08/07 04:56:35;;;;;;;2.50;2.00;;;19.80;73.20;;;;;;2091350;28;20021;-76
2022/08/07 04:57:47;;;;;;;3.72;1.95;;;19.90;72.40;;;;;;2100894;28;20378;-74
2022/08/07 04:59:05;;;;;;;2.58;2.00;;;20.00;71.50;;;;;;2095590;28;20120;-76
2022/08/07 05:00:07;;;;;;;3.63;1.90;;;20.10;71.00;;;;;;2089430;28;20101;-74
2022/08/07 05:01:16;;;;;;;2.83;2.45;;;20.20;70.60;;;;;;2084668;28;20557;-75
2022/08/07 05:02:25;;;;;;;3.72;2.47;;;20.30;70.40;;;;;;2102031;28;20070;-76
2022/08/07 05:03:40;;;;;;;2.65;2.45;;;20.20;71.00;;;;;;2101402;28;20025;-76
2022/08/07 05:05:11;;;;;;;3.03;2.40;;;20.10;70.10;;;;;;2108684;28;20086;-76
2022/08/07 05:06:48;;;;;;;3.50;2.55;;;20.00;70.80;;;;;;2106669;28;20678;-76
2022/08/07 05:08:28;;;;;;;3.05;2.50;;;20.00;71.30;;;;;;2108311;28;20020;-76
2022/08/07 05:09:47;;;;;;;;;;;20.10;71.10;;;;;;2097122;28;20036;-76
2022/08/07 05:11:08;;;;;;;2.42;2.20;;;20.10;70.90;;;;;;2095119;28;19912;-75
2022/08/07 05:12:12;;;;;;;3.25;2.45;;;20.30;70.60;;;;;;2094382;28;20028;-76
2022/08/07 05:13:19;;;;;;;3.33;2.80;;;20.20;70.30;;;;;;2092700;28;20119;-76
2022/08/07 05:14:37;;;;;;;4.55;2.60;;;20.20;70.00;;;;;;2102368;28;20043;-74
2022/08/07 05:15:44;;;;;;;3.60;2.50;;;20.30;70.00;;;;;;2094502;28;20028;-76
2022/08/07 05:16:47;;;;;;;2.35;2.15;;;20.40;69.70;;;;;;2093223;28;20021;-75
2022/08/07 05:17:55;;;;;;;2.90;2.42;;;20.50;69.20;;;;;;2100691;28;20028;-77
2022/08/07 05:19:02;;;;;;;2.22;1.80;;;20.50;68.80;;;;;;2108170;28;20220;-74
2022/08/07 05:20:04;;;;;;;2.00;1.80;;;20.60;68.50;;;;;;2101107;28;20028;-74
2022/08/07 05:21:11;;;;;;;2.08;1.88;;;20.80;67.80;;;;;;2091303;28;20025;-75
2022/08/07 05:22:19;;;;;;;3.30;1.70;;;20.90;67.40;;;;;;2092161;28;20031;-75
2022/08/07 05:23:29;;;;;;;1.80;1.70;;;21.00;67.10;;;;;;2100992;28;20051;-76
2022/08/07 05:24:32;;;;;;;2.28;1.50;;;21.20;66.60;;;;;;2108179;28;20077;-73
2022/08/07 05:25:34;;;;;;;3.35;1.67;;;21.30;66.00;;;;;;2108010;28;20046;-75
2022/08/07 05:26:36;;;;;;;1.65;1.55;;;21.30;65.90;;;;;;2098709;28;20017;-75
2022/08/07 05:27:42;;;;;;;4.40;1.60;;;21.30;65.30;;;;;;2085509;28;20029;-75
2022/08/07 05:28:45;;;;;;;2.88;1.70;;;21.30;65.70;;;;;;2086901;28;20060;-76
2022/08/07 05:29:49;;;;;;;3.25;1.70;;;21.30;65.50;;;;;;2095132;28;20040;-74
2022/08/07 05:30:52;;;;;;;2.05;1.50;;;21.50;65.30;;;;;;2102660;28;20033;-74
2022/08/07 05:31:59;;;;;;;2.38;1.50;;;21.60;64.80;;;;;;2092716;28;20025;-75
2022/08/07 05:33:08;;;;;;;3.03;1.42;;;21.60;64.40;;;;;;2094101;28;20033;-75
2022/08/07 05:34:12;;;;;;;2.20;1.67;;;21.70;64.20;;;;;;2102665;28;20025;-75
2022/08/07 05:35:17;;;;;;;2.20;1.60;;;21.80;64.00;;;;;;2110449;28;20024;-77
2022/08/07 05:36:19;;;;;;;2.10;1.50;;;21.80;63.80;;;;;;2107388;28;20363;-76
2022/08/07 05:37:24;;;;;;;1.92;1.50;;;21.90;63.50;;;;;;2084087;28;20032;-77